createdAt,value
2024-01-24T00:07:07.352Z,22.16
2024-01-24T00:17:09.140Z,22.17
2024-01-24T00:27:12.714Z,22.17
2024-01-24T00:37:14.642Z,22.15
2024-01-24T00:47:16.637Z,22.19
2024-01-24T00:57:18.342Z,22.17
2024-01-24T01:07:20.183Z,22.16
2024-01-24T01:17:21.877Z,22.16
2024-01-24T01:27:24.173Z,22.18
2024-01-24T01:37:25.974Z,22.16
2024-01-24T01:47:28.069Z,22.18
2024-01-24T01:57:30.250Z,22.17
2024-01-24T02:07:32.322Z,22.15
2024-01-24T02:17:34.225Z,22.15
2024-01-24T02:27:36.428Z,22.14
2024-01-24T02:37:39.779Z,22.13
2024-01-24T02:47:41.776Z,22.14
2024-01-24T02:57:44.926Z,22.14
2024-01-24T03:07:48.882Z,22.14
2024-01-24T03:17:50.574Z,22.12
2024-01-24T03:27:52.376Z,22.11
2024-01-24T03:37:54.055Z,22.09
2024-01-24T03:47:56.138Z,22.08
2024-01-24T03:57:58.256Z,22.07
2024-01-24T04:08:00.544Z,22.06
2024-01-24T04:18:02.659Z,22.02
2024-01-24T04:28:04.839Z,22.04
2024-01-24T04:38:06.764Z,22.04
2024-01-24T04:48:08.901Z,22.03
2024-01-24T04:58:10.765Z,22.01
2024-01-24T05:08:12.637Z,22.00
2024-01-24T05:18:14.560Z,21.98
2024-01-24T05:28:16.584Z,21.99
2024-01-24T05:38:18.261Z,21.94
2024-01-24T05:48:20.372Z,21.91
2024-01-24T05:58:22.254Z,21.80
2024-01-24T06:08:24.458Z,21.92
2024-01-24T06:18:26.460Z,21.91
2024-01-24T06:28:28.435Z,21.90
2024-01-24T06:38:30.245Z,21.89
2024-01-24T06:48:32.240Z,21.97
2024-01-24T06:58:34.955Z,22.02
2024-01-24T07:08:41.781Z,22.08
2024-01-24T07:18:43.855Z,22.13
2024-01-24T07:28:45.888Z,22.15
2024-01-24T07:38:48.090Z,22.30
2024-01-24T07:48:50.109Z,22.19
2024-01-24T07:58:52.486Z,22.15
2024-01-24T08:08:54.508Z,22.13
2024-01-24T08:18:57.892Z,22.10
2024-01-24T08:29:00.466Z,22.08
2024-01-24T08:39:04.461Z,22.04
2024-01-24T08:49:06.613Z,22.00
2024-01-24T08:59:08.918Z,21.99
2024-01-24T09:09:15.495Z,21.96
2024-01-24T09:19:18.200Z,21.94
2024-01-24T09:29:20.398Z,21.92
2024-01-24T09:39:23.363Z,21.87
2024-01-24T09:49:25.948Z,21.86
2024-01-24T09:59:27.876Z,21.84
2024-01-24T10:09:29.733Z,21.82
2024-01-24T10:19:31.642Z,21.80
2024-01-24T10:29:33.738Z,21.78
2024-01-24T10:39:38.109Z,21.66
2024-01-24T10:49:41.315Z,21.76
2024-01-24T10:59:45.445Z,21.75
2024-01-24T11:09:59.387Z,21.74
2024-01-24T11:20:11.189Z,21.72
2024-01-24T11:30:12.964Z,21.71
2024-01-24T11:40:17.096Z,21.63
2024-01-24T11:50:21.740Z,21.68
2024-01-24T12:00:24.640Z,21.67
2024-01-24T12:10:26.824Z,21.65
2024-01-24T12:20:28.635Z,21.63
2024-01-24T12:30:34.280Z,21.62
2024-01-24T12:40:36.685Z,21.60
2024-01-24T12:50:39.255Z,21.61
2024-01-24T13:00:41.556Z,21.61
2024-01-24T13:10:44.333Z,21.59
2024-01-24T13:20:46.744Z,21.55
2024-01-24T13:30:48.490Z,21.55
2024-01-24T13:40:50.697Z,21.54
2024-01-24T13:50:53.470Z,21.53
2024-01-24T14:00:56.746Z,21.52
2024-01-24T14:10:58.962Z,21.51
2024-01-24T14:21:00.892Z,21.49
2024-01-24T14:31:02.774Z,21.46
2024-01-24T14:41:04.883Z,21.46
2024-01-24T14:51:06.806Z,21.46
2024-01-24T15:01:09.232Z,21.44
2024-01-24T15:11:11.372Z,21.42
2024-01-24T15:21:14.204Z,21.41
2024-01-24T15:31:19.173Z,21.43
2024-01-24T15:41:22.139Z,21.55
2024-01-24T15:51:24.191Z,21.57
2024-01-24T16:01:28.585Z,21.51
2024-01-24T16:11:30.380Z,21.49
2024-01-24T16:21:32.826Z,21.46
2024-01-24T16:31:34.729Z,21.42
2024-01-24T16:41:36.520Z,21.33
2024-01-24T16:51:38.265Z,21.38
2024-01-24T17:01:40.774Z,21.40
2024-01-24T17:11:42.592Z,21.39
2024-01-24T17:21:45.759Z,21.41
2024-01-24T17:31:48.081Z,21.43
2024-01-24T17:41:52.218Z,21.41
2024-01-24T17:51:54.261Z,21.43
2024-01-24T18:01:57.917Z,21.42
2024-01-24T18:12:00.394Z,21.44
2024-01-24T18:22:03.065Z,21.43
2024-01-24T18:32:05.198Z,21.47
2024-01-24T18:42:08.669Z,21.43
2024-01-24T18:52:10.980Z,21.45
2024-01-24T19:02:19.502Z,21.44
2024-01-24T19:12:21.732Z,21.45
2024-01-24T19:22:24.095Z,21.41
2024-01-24T19:32:25.913Z,21.45
2024-01-24T19:42:28.748Z,21.45
2024-01-24T19:52:30.841Z,21.44
2024-01-24T20:02:34.058Z,21.41
2024-01-24T20:12:35.887Z,21.39
2024-01-24T20:22:37.808Z,21.38
2024-01-24T20:32:45.426Z,21.36
2024-01-24T20:42:55.006Z,21.34
2024-01-24T20:52:56.733Z,21.30
2024-01-24T21:02:59.045Z,21.32
2024-01-24T21:13:01.073Z,21.28
2024-01-24T21:23:04.075Z,21.27
2024-01-24T21:33:06.145Z,21.26
2024-01-24T21:43:08.441Z,21.26
2024-01-24T21:53:10.374Z,21.24
2024-01-24T22:03:12.446Z,21.22
2024-01-24T22:13:14.383Z,21.22
2024-01-24T22:23:16.185Z,21.21
2024-01-24T22:33:18.056Z,21.21
2024-01-24T22:43:19.923Z,21.15
2024-01-24T22:53:23.694Z,21.19
2024-01-24T23:03:25.741Z,21.19
2024-01-24T23:13:27.641Z,21.19
2024-01-24T23:23:29.538Z,21.19
2024-01-24T23:33:34.655Z,21.19
2024-01-24T23:43:37.074Z,21.19
2024-01-24T23:53:38.868Z,21.21
